Time;durP1;ratioP1;P1;durP2;ratioP2;P2;SDS_P1;SDS_P2;PMS_P1;PMS_P2;Temp;Humidity;BMP_temperature;BMP_pressure;BME280_temperature;BME280_humidity;BME280_pressure;Samples;Min_cycle;Max_cycle;Signal;HPM_P1;HPM_P2
2024/03/31 00:04:10;;;;;;;7.05;4.45;;;14.50;99.90;;;;;;4459761;32;20110;-66
2024/03/31 00:06:36;;;;;;;38.08;5.90;;;14.50;99.90;;;;;;4456704;32;20536;-66
2024/03/31 00:09:01;;;;;;;18.83;7.45;;;14.40;99.90;;;;;;4453162;32;20080;-66
2024/03/31 00:11:27;;;;;;;29.10;7.57;;;14.50;99.90;;;;;;4459618;32;20073;-66
2024/03/31 00:13:52;;;;;;;26.58;10.02;;;14.60;99.90;;;;;;4458801;32;20073;-67
2024/03/31 00:16:18;;;;;;;23.55;7.47;;;14.60;99.90;;;;;;4460680;32;20096;-66
2024/03/31 00:18:43;;;;;;;12.48;6.85;;;14.60;99.90;;;;;;4458929;32;20129;-67
2024/03/31 00:21:09;;;;;;;50.33;4.97;;;14.60;99.90;;;;;;4461256;32;20097;-68
2024/03/31 00:23:34;;;;;;;41.00;6.18;;;14.50;99.90;;;;;;4460115;32;20084;-66
2024/03/31 00:26:01;;;;;;;11.68;6.20;;;14.50;99.90;;;;;;4462852;32;20535;-66
2024/03/31 00:28:27;;;;;;;34.65;10.00;;;14.40;99.90;;;;;;4463903;32;20532;-66
2024/03/31 00:30:56;;;;;;;15.82;5.65;;;14.50;99.90;;;;;;4464944;32;20549;-66
2024/03/31 00:33:23;;;;;;;33.67;10.90;;;14.60;99.90;;;;;;4463955;32;20065;-63
2024/03/31 00:35:57;;;;;;;31.95;8.00;;;14.70;99.90;;;;;;4462834;32;20075;-63
2024/03/31 00:38:24;;;;;;;24.58;5.18;;;14.60;99.90;;;;;;4446289;32;20082;-64
2024/03/31 00:40:49;;;;;;;21.67;6.57;;;14.50;99.90;;;;;;4450703;32;20068;-63
2024/03/31 00:43:18;;;;;;;21.98;9.27;;;14.60;99.90;;;;;;4448962;32;20090;-63
2024/03/31 00:45:44;;;;;;;16.75;6.85;;;14.70;99.90;;;;;;4466353;32;20126;-63
2024/03/31 00:48:10;;;;;;;14.68;5.60;;;14.60;99.90;;;;;;4466628;32;20115;-63
2024/03/31 00:50:36;;;;;;;42.15;7.37;;;14.50;99.90;;;;;;4465784;32;20093;-63
2024/03/31 00:53:02;;;;;;;9.52;3.50;;;14.40;99.90;;;;;;4463009;32;20203;-63
2024/03/31 00:55:28;;;;;;;6.95;3.40;;;14.20;99.90;;;;;;4448715;32;20132;-63
2024/03/31 00:57:53;;;;;;;14.13;6.68;;;14.20;99.90;;;;;;4463450;32;20472;-63
2024/03/31 01:00:21;;;;;;;13.73;5.53;;;14.20;99.90;;;;;;4467134;32;20065;-63
2024/03/31 01:02:47;;;;;;;3.92;3.25;;;14.10;99.90;;;;;;4453486;32;20542;-66
2024/03/31 01:05:13;;;;;;;35.95;8.30;;;13.90;99.90;;;;;;4462193;32;20067;-66
2024/03/31 01:07:39;;;;;;;24.50;6.80;;;13.90;99.90;;;;;;4428880;32;20151;-65
2024/03/31 01:10:05;;;;;;;25.70;7.35;;;14.00;99.90;;;;;;4441936;32;20068;-66
2024/03/31 01:12:31;;;;;;;40.97;8.27;;;14.00;99.90;;;;;;4457747;32;20477;-66
2024/03/31 01:14:57;;;;;;;26.05;8.60;;;14.10;99.90;;;;;;4450139;32;20133;-66
2024/03/31 01:17:24;;;;;;;12.93;7.22;;;14.20;99.90;;;;;;4446760;32;20592;-65
2024/03/31 01:19:49;;;;;;;42.75;8.77;;;14.30;99.90;;;;;;4456972;32;20081;-66
2024/03/31 01:22:15;;;;;;;16.95;8.70;;;14.20;99.90;;;;;;4454962;32;20126;-66
2024/03/31 01:24:41;;;;;;;24.35;6.55;;;13.80;99.90;;;;;;4458133;32;20080;-65
2024/03/31 01:27:06;;;;;;;8.82;4.28;;;13.70;99.90;;;;;;4455992;32;20134;-66
2024/03/31 01:29:31;;;;;;;23.95;6.50;;;13.70;99.90;;;;;;4457074;32;20694;-66
2024/03/31 01:31:57;;;;;;;9.13;3.62;;;13.60;99.90;;;;;;4455619;32;20084;-66
2024/03/31 01:34:23;;;;;;;9.50;4.97;;;13.60;99.90;;;;;;4446058;32;20527;-66
2024/03/31 01:36:49;;;;;;;8.88;5.25;;;13.60;99.90;;;;;;4441268;32;20068;-65
2024/03/31 01:39:17;;;;;;;27.90;7.07;;;13.60;99.90;;;;;;4453363;32;20081;-65
2024/03/31 01:41:44;;;;;;;27.77;6.75;;;13.50;99.90;;;;;;4442165;32;20089;-65
2024/03/31 01:44:10;;;;;;;21.52;7.78;;;13.20;99.90;;;;;;4443118;32;20552;-62
2024/03/31 01:46:36;;;;;;;27.92;8.57;;;13.20;99.90;;;;;;4424470;32;20064;-63
2024/03/31 01:49:01;;;;;;;15.82;4.50;;;13.20;99.90;;;;;;4456144;32;20124;-63
2024/03/31 01:51:26;;;;;;;12.60;5.45;;;13.20;99.90;;;;;;4450519;32;20086;-63
2024/03/31 01:53:52;;;;;;;28.20;8.90;;;13.20;99.90;;;;;;4442131;32;20088;-62
2024/03/31 01:56:17;;;;;;;16.10;7.07;;;13.20;99.90;;;;;;4456224;32;20410;-62
2024/03/31 01:58:43;;;;;;;15.48;6.70;;;13.30;99.90;;;;;;4456775;32;20076;-62
2024/03/31 02:01:08;;;;;;;24.20;5.78;;;13.20;99.90;;;;;;4455870;32;20085;-63
2024/03/31 02:03:34;;;;;;;22.87;7.53;;;13.10;99.90;;;;;;4455611;32;20077;-63
2024/03/31 02:06:07;;;;;;;17.12;8.20;;;13.00;99.90;;;;;;4457584;32;20065;-63
2024/03/31 02:08:32;;;;;;;10.80;4.87;;;13.00;99.90;;;;;;4457361;32;20073;-62
2024/03/31 02:10:58;;;;;;;19.52;6.82;;;13.00;99.90;;;;;;4457357;32;20060;-61
2024/03/31 02:13:23;;;;;;;14.70;5.87;;;13.00;99.90;;;;;;4455816;32;20099;-64
2024/03/31 02:15:49;;;;;;;21.00;4.53;;;13.00;99.90;;;;;;4456573;32;20065;-66
2024/03/31 02:18:14;;;;;;;12.00;5.47;;;13.00;99.90;;;;;;4455085;32;20477;-66
2024/03/31 02:20:40;;;;;;;15.27;4.57;;;13.00;99.90;;;;;;4456146;32;20130;-66
2024/03/31 02:23:05;;;;;;;9.10;4.93;;;13.00;99.90;;;;;;4454204;32;20131;-65
2024/03/31 02:25:30;;;;;;;25.60;7.70;;;12.90;99.90;;;;;;4455925;32;20544;-66
2024/03/31 02:27:56;;;;;;;36.33;10.60;;;12.90;99.90;;;;;;4452710;32;20448;-64
2024/03/31 02:30:21;;;;;;;28.20;8.27;;;12.90;99.90;;;;;;4453739;32;20112;-65
2024/03/31 02:32:47;;;;;;;10.30;4.55;;;12.90;99.90;;;;;;4454096;32;20123;-65
2024/03/31 02:35:12;;;;;;;31.15;10.23;;;12.90;99.90;;;;;;4455298;32;20512;-64
2024/03/31 02:37:38;;;;;;;40.40;5.80;;;12.80;99.90;;;;;;4455562;32;20596;-64
2024/03/31 02:40:04;;;;;;;27.50;5.22;;;12.80;99.90;;;;;;4454833;32;20659;-66
2024/03/31 02:42:29;;;;;;;30.52;7.00;;;12.70;99.90;;;;;;4454624;32;20143;-68
2024/03/31 02:44:55;;;;;;;17.27;4.87;;;12.50;99.90;;;;;;4453270;32;20556;-64
2024/03/31 02:47:20;;;;;;;16.87;5.50;;;12.40;99.90;;;;;;4453764;32;20478;-65
2024/03/31 02:49:45;;;;;;;13.15;7.72;;;12.40;99.90;;;;;;4453818;32;20052;-64
2024/03/31 02:52:11;;;;;;;25.73;7.30;;;12.40;99.90;;;;;;4455071;32;20084;-63
2024/03/31 02:54:37;;;;;;;10.20;4.72;;;12.50;99.90;;;;;;4454558;32;20076;-62
2024/03/31 02:57:10;;;;;;;13.32;6.68;;;12.50;99.90;;;;;;4455445;32;20093;-62
2024/03/31 02:59:37;;;;;;;38.95;5.85;;;12.50;99.90;;;;;;4456145;32;20516;-62
2024/03/31 03:04:29;;;;;;;36.55;7.18;;;12.60;99.90;;;;;;4456115;32;20064;-63
2024/03/31 03:06:57;;;;;;;20.60;7.78;;;12.40;99.90;;;;;;4447852;32;20076;-62
2024/03/31 03:09:22;;;;;;;15.30;5.87;;;12.40;99.90;;;;;;4450469;32;20132;-62
2024/03/31 03:11:48;;;;;;;21.77;8.05;;;12.30;99.90;;;;;;4448340;32;20575;-62
2024/03/31 03:14:14;;;;;;;53.08;8.38;;;12.50;99.90;;;;;;4454905;32;20140;-62
2024/03/31 03:16:41;;;;;;;7.43;4.37;;;12.60;99.90;;;;;;4446877;32;20504;-62
2024/03/31 03:19:06;;;;;;;34.20;6.22;;;12.70;99.90;;;;;;4456999;32;20516;-62
2024/03/31 03:21:32;;;;;;;16.10;6.65;;;12.80;99.90;;;;;;4457009;32;20068;-62
2024/03/31 03:23:58;;;;;;;29.65;7.45;;;12.80;99.90;;;;;;4458215;32;20563;-62
2024/03/31 03:26:24;;;;;;;11.35;5.93;;;12.70;99.90;;;;;;4456956;32;20085;-62
2024/03/31 03:28:50;;;;;;;10.60;5.62;;;12.70;99.90;;;;;;4457100;32;20122;-61
2024/03/31 03:31:16;;;;;;;14.87;6.55;;;12.80;99.90;;;;;;4449344;32;20075;-61
2024/03/31 03:33:42;;;;;;;24.87;7.07;;;13.00;99.90;;;;;;4456593;32;20548;-62
2024/03/31 03:36:08;;;;;;;10.90;4.45;;;13.10;99.90;;;;;;4456485;32;20072;-63
2024/03/31 03:38:34;;;;;;;23.77;8.20;;;13.00;99.90;;;;;;4456802;32;20507;-63
2024/03/31 03:40:59;;;;;;;30.50;6.90;;;13.00;99.90;;;;;;4447197;32;20084;-62
2024/03/31 03:43:26;;;;;;;13.30;6.35;;;12.80;99.90;;;;;;4456896;32;20065;-63
2024/03/31 03:45:51;;;;;;;30.10;8.30;;;12.40;99.90;;;;;;4455781;32;20136;-63
2024/03/31 03:48:17;;;;;;;13.15;2.78;;;12.30;99.90;;;;;;4456208;32;20092;-63
2024/03/31 03:50:42;;;;;;;18.40;6.93;;;12.30;99.90;;;;;;4447197;32;20744;-63
2024/03/31 03:53:08;;;;;;;10.23;4.80;;;12.30;99.90;;;;;;4455750;32;20077;-63
2024/03/31 03:55:34;;;;;;;34.92;7.22;;;12.30;99.90;;;;;;4456419;32;20072;-64
2024/03/31 03:58:00;;;;;;;32.55;6.60;;;12.10;99.90;;;;;;4455654;32;20107;-61
2024/03/31 04:02:54;;;;;;;32.85;7.87;;;12.00;99.90;;;;;;4453265;32;20131;-66
2024/03/31 04:05:20;;;;;;;26.10;6.28;;;12.00;99.90;;;;;;4452458;32;20852;-66
2024/03/31 04:07:47;;;;;;;15.02;6.15;;;12.00;99.90;;;;;;4454414;32;20073;-67
2024/03/31 04:10:12;;;;;;;7.55;4.18;;;12.00;99.90;;;;;;4454400;32;20581;-67
2024/03/31 04:12:38;;;;;;;29.02;10.75;;;12.00;99.90;;;;;;4455736;32;20081;-67
2024/03/31 04:15:04;;;;;;;17.58;7.05;;;12.00;99.90;;;;;;4454101;32;20076;-66
2024/03/31 04:17:29;;;;;;;40.15;4.10;;;11.90;99.90;;;;;;4455428;32;20072;-66
2024/03/31 04:19:55;;;;;;;5.70;3.72;;;11.90;99.90;;;;;;4454261;32;20556;-67
2024/03/31 04:22:20;;;;;;;10.05;4.90;;;11.80;99.90;;;;;;4452641;32;20205;-66
2024/03/31 04:24:46;;;;;;;27.20;6.03;;;11.70;99.90;;;;;;4455781;32;20434;-66
2024/03/31 04:27:11;;;;;;;38.20;11.07;;;11.70;99.90;;;;;;4455533;32;20100;-66
2024/03/31 04:29:37;;;;;;;22.37;6.30;;;11.60;99.90;;;;;;4455132;32;20073;-66
2024/03/31 04:32:03;;;;;;;21.00;7.47;;;11.50;99.90;;;;;;4454961;32;20539;-66
2024/03/31 04:34:28;;;;;;;14.10;5.80;;;11.50;99.90;;;;;;4455524;32;20068;-62
2024/03/31 04:36:55;;;;;;;23.77;8.70;;;11.50;99.90;;;;;;4439648;32;20078;-64
2024/03/31 04:39:20;;;;;;;23.80;8.45;;;11.50;99.90;;;;;;4455234;32;20064;-63
2024/03/31 04:41:51;;;;;;;4.32;3.08;;;11.50;99.90;;;;;;4457488;32;20672;-63
2024/03/31 04:44:16;;;;;;;46.92;8.85;;;11.50;99.90;;;;;;4448044;32;20156;-64
2024/03/31 04:46:44;;;;;;;14.50;6.60;;;11.60;99.90;;;;;;4449425;32;20455;-63
2024/03/31 04:49:10;;;;;;;13.55;5.70;;;11.60;99.90;;;;;;4455157;32;20068;-63
2024/03/31 04:51:36;;;;;;;9.57;3.72;;;11.50;99.90;;;;;;4456083;32;20604;-63
2024/03/31 04:54:02;;;;;;;27.25;7.15;;;11.50;99.90;;;;;;4455175;32;20085;-63
2024/03/31 04:56:29;;;;;;;46.53;4.78;;;11.60;99.90;;;;;;4449285;32;20209;-64
2024/03/31 04:58:54;;;;;;;10.18;3.87;;;11.80;99.90;;;;;;4455798;32;20073;-63
2024/03/31 05:01:21;;;;;;;33.83;7.93;;;11.90;99.90;;;;;;4455903;32;20475;-63
2024/03/31 05:03:46;;;;;;;24.20;6.85;;;11.90;99.90;;;;;;4455815;32;20129;-63
2024/03/31 05:06:12;;;;;;;10.52;5.25;;;11.80;99.90;;;;;;4456169;32;20477;-64
2024/03/31 05:08:37;;;;;;;28.50;5.37;;;11.60;99.90;;;;;;4458308;32;20435;-62
2024/03/31 05:11:03;;;;;;;13.18;5.95;;;11.50;99.90;;;;;;4458029;32;20060;-63
2024/03/31 05:13:29;;;;;;;13.40;5.18;;;11.50;99.90;;;;;;4456612;32;20092;-65
2024/03/31 05:15:59;;;;;;;22.02;4.60;;;11.40;99.90;;;;;;4447331;32;20555;-65
2024/03/31 05:18:25;;;;;;;88.62;7.12;;;11.20;99.90;;;;;;4455550;32;20529;-65
2024/03/31 05:21:00;;;;;;;13.93;5.90;;;11.10;99.90;;;;;;4457627;32;20081;-66
2024/03/31 05:23:26;;;;;;;10.73;4.68;;;11.10;99.90;;;;;;4456194;32;20088;-65
2024/03/31 05:25:52;;;;;;;8.23;4.53;;;11.10;99.90;;;;;;4443165;32;20066;-65
2024/03/31 05:28:18;;;;;;;4.65;3.58;;;11.20;99.90;;;;;;4450747;32;20080;-64
2024/03/31 05:30:45;;;;;;;9.45;4.68;;;11.30;99.90;;;;;;4446985;32;20065;-66
2024/03/31 05:33:11;;;;;;;25.98;6.18;;;11.10;99.90;;;;;;4445961;32;20080;-66
2024/03/31 05:35:37;;;;;;;5.50;3.60;;;11.10;99.90;;;;;;4456139;32;20080;-66
2024/03/31 05:38:02;;;;;;;21.33;8.05;;;11.20;99.90;;;;;;4456070;32;20065;-65
2024/03/31 05:40:28;;;;;;;35.55;8.45;;;11.20;99.90;;;;;;4455889;32;20135;-66
2024/03/31 05:42:53;;;;;;;13.25;5.78;;;11.30;99.90;;;;;;4457022;32;20905;-65
2024/03/31 05:45:19;;;;;;;91.65;7.43;;;11.40;99.90;;;;;;4457570;32;20076;-66
2024/03/31 05:47:44;;;;;;;46.85;8.18;;;11.30;99.90;;;;;;4455792;32;20088;-66
2024/03/31 05:50:10;;;;;;;14.13;4.87;;;11.50;99.90;;;;;;4454023;32;20457;-66
2024/03/31 05:52:36;;;;;;;39.70;9.45;;;11.60;99.90;;;;;;4454344;32;20064;-62
2024/03/31 05:55:02;;;;;;;65.47;9.20;;;11.50;99.90;;;;;;4455965;32;20068;-63
2024/03/31 05:57:27;;;;;;;25.30;3.72;;;11.50;99.90;;;;;;4457521;32;20085;-62
2024/03/31 05:59:53;;;;;;;3.53;2.65;;;11.50;99.90;;;;;;4457348;32;20118;-62
2024/03/31 06:02:18;;;;;;;26.77;8.20;;;11.50;99.90;;;;;;4457632;32;20083;-63
2024/03/31 06:04:43;;;;;;;42.80;7.80;;;11.50;99.90;;;;;;4458279;32;20112;-62
2024/03/31 06:07:09;;;;;;;34.00;5.82;;;11.40;99.90;;;;;;4456661;32;20123;-61
2024/03/31 06:09:34;;;;;;;26.27;6.32;;;11.50;99.90;;;;;;4456299;32;20471;-62
2024/03/31 06:12:00;;;;;;;29.20;3.40;;;11.50;99.90;;;;;;4456634;32;20084;-64
2024/03/31 06:14:25;;;;;;;25.20;8.05;;;11.60;99.90;;;;;;4455437;32;20069;-62
2024/03/31 06:16:51;;;;;;;13.27;6.80;;;11.60;99.90;;;;;;4456064;32;20089;-62
2024/03/31 06:19:16;;;;;;;19.52;6.20;;;11.60;99.90;;;;;;4456775;32;20554;-62
2024/03/31 06:21:42;;;;;;;27.45;6.95;;;11.50;99.90;;;;;;4458557;32;20179;-63
2024/03/31 06:24:09;;;;;;;9.73;5.07;;;11.60;99.90;;;;;;4456133;32;20064;-66
2024/03/31 06:26:36;;;;;;;13.20;6.75;;;11.80;99.90;;;;;;4455841;32;20065;-66
2024/03/31 06:29:01;;;;;;;35.05;5.78;;;11.90;99.90;;;;;;4455537;32;20065;-66
2024/03/31 06:31:27;;;;;;;23.83;6.50;;;12.00;99.90;;;;;;4453832;32;20079;-66
2024/03/31 06:33:55;;;;;;;27.40;5.00;;;12.10;99.90;;;;;;4456584;32;20437;-69
2024/03/31 06:36:20;;;;;;;33.00;4.82;;;12.20;99.90;;;;;;4453448;32;20088;-66
2024/03/31 06:38:46;;;;;;;18.12;5.57;;;12.20;99.90;;;;;;4455643;32;20077;-66
2024/03/31 06:41:11;;;;;;;19.08;6.30;;;12.20;99.90;;;;;;4455361;32;20122;-66
2024/03/31 06:43:37;;;;;;;21.62;5.32;;;12.20;99.90;;;;;;4455527;32;20057;-66
2024/03/31 06:46:02;;;;;;;38.80;8.57;;;12.20;99.90;;;;;;4456326;32;20089;-66
2024/03/31 06:48:28;;;;;;;17.67;7.45;;;12.20;99.90;;;;;;4457358;32;20077;-65
2024/03/31 06:50:53;;;;;;;17.35;8.50;;;12.10;99.90;;;;;;4454660;32;20064;-65
2024/03/31 06:53:19;;;;;;;23.75;9.00;;;12.10;99.90;;;;;;4456407;32;20193;-65
2024/03/31 06:55:44;;;;;;;13.43;4.12;;;12.10;99.90;;;;;;4454641;32;20084;-65
2024/03/31 06:58:10;;;;;;;21.10;6.12;;;12.10;99.90;;;;;;4454888;32;20387;-66
2024/03/31 07:00:35;;;;;;;30.48;5.90;;;12.20;99.90;;;;;;4454853;32;20081;-65
2024/03/31 07:03:00;;;;;;;8.30;3.55;;;12.30;99.90;;;;;;4456769;32;20065;-63
2024/03/31 07:05:26;;;;;;;25.27;8.85;;;12.40;99.90;;;;;;4455992;32;20081;-63
2024/03/31 07:07:51;;;;;;;20.85;5.97;;;12.50;99.90;;;;;;4456701;32;20571;-62
2024/03/31 07:10:17;;;;;;;10.40;5.22;;;12.60;99.90;;;;;;4456281;32;20088;-64
2024/03/31 07:12:43;;;;;;;12.82;3.78;;;12.70;99.90;;;;;;4457142;32;20064;-62
2024/03/31 07:15:09;;;;;;;16.75;5.55;;;12.80;99.90;;;;;;4456898;32;20064;-63
2024/03/31 07:17:36;;;;;;;28.00;5.37;;;13.00;99.90;;;;;;4457076;32;20077;-63
2024/03/31 07:20:01;;;;;;;59.83;7.47;;;13.00;99.90;;;;;;4457543;32;20079;-62
2024/03/31 07:22:27;;;;;;;22.60;4.95;;;13.00;99.90;;;;;;4457028;32;20061;-62
2024/03/31 07:24:52;;;;;;;14.48;5.95;;;13.00;99.90;;;;;;4457210;32;20065;-62
2024/03/31 07:27:17;;;;;;;31.87;7.10;;;13.10;99.90;;;;;;4457494;32;20556;-63
2024/03/31 07:29:43;;;;;;;32.40;7.20;;;13.00;99.90;;;;;;4456168;32;20143;-63
2024/03/31 07:32:08;;;;;;;24.98;5.18;;;13.00;99.90;;;;;;4457679;32;20076;-62
2024/03/31 07:34:34;;;;;;;44.88;9.82;;;13.00;99.90;;;;;;4455892;32;20093;-65
2024/03/31 07:36:59;;;;;;;14.68;6.60;;;13.00;99.90;;;;;;4455114;32;20073;-65
2024/03/31 07:39:25;;;;;;;25.92;8.52;;;13.00;99.90;;;;;;4454800;32;20532;-66
2024/03/31 07:41:50;;;;;;;21.60;8.18;;;13.10;99.90;;;;;;4454979;32;20120;-66
2024/03/31 07:44:16;;;;;;;10.07;5.35;;;13.10;99.90;;;;;;4454461;32;20088;-66
2024/03/31 07:46:41;;;;;;;31.33;5.97;;;13.20;99.90;;;;;;4446141;32;20498;-65
2024/03/31 07:49:07;;;;;;;50.08;8.88;;;13.30;99.90;;;;;;4456191;32;20068;-66
2024/03/31 07:51:32;;;;;;;16.10;5.62;;;13.20;99.90;;;;;;4455050;32;20496;-65
2024/03/31 07:53:57;;;;;;;29.63;7.30;;;13.20;99.90;;;;;;4454688;32;20076;-66
2024/03/31 07:56:23;;;;;;;33.20;9.63;;;13.30;99.90;;;;;;4453882;32;20072;-66
2024/03/31 07:58:48;;;;;;;13.98;4.82;;;13.50;99.90;;;;;;4452969;32;20191;-65
2024/03/31 08:01:14;;;;;;;25.42;3.45;;;13.60;99.90;;;;;;4455031;32;20784;-65
2024/03/31 08:03:39;;;;;;;14.43;6.93;;;13.70;99.90;;;;;;4454522;32;20069;-66
2024/03/31 08:06:05;;;;;;;44.30;4.82;;;13.70;99.90;;;;;;4455146;32;20766;-65
2024/03/31 08:08:30;;;;;;;69.55;6.80;;;13.70;99.90;;;;;;4454614;32;20068;-65
2024/03/31 08:10:56;;;;;;;3.37;2.62;;;13.70;99.90;;;;;;4455491;32;20068;-65
2024/03/31 08:13:21;;;;;;;54.88;9.38;;;13.80;99.90;;;;;;4454756;32;20081;-65
2024/03/31 08:15:47;;;;;;;9.68;4.20;;;14.00;99.90;;;;;;4455623;32;20505;-65
2024/03/31 08:18:12;;;;;;;22.67;6.75;;;14.10;99.90;;;;;;4453818;32;20080;-65
2024/03/31 08:20:38;;;;;;;11.68;5.15;;;14.30;99.90;;;;;;4454490;32;20073;-66
2024/03/31 08:23:03;;;;;;;18.75;7.22;;;14.40;99.90;;;;;;4453933;32;20847;-64
2024/03/31 08:25:29;;;;;;;7.70;4.25;;;14.50;99.90;;;;;;4455081;32;20073;-67
2024/03/31 08:27:55;;;;;;;7.90;5.07;;;14.60;99.90;;;;;;4449477;32;20092;-67
2024/03/31 08:30:20;;;;;;;16.20;6.80;;;14.80;99.90;;;;;;4453734;32;20126;-67
2024/03/31 08:32:46;;;;;;;36.35;6.15;;;14.90;99.90;;;;;;4455233;32;20170;-67
2024/03/31 08:35:11;;;;;;;40.70;9.20;;;15.00;99.90;;;;;;4455798;32;20104;-65
2024/03/31 08:37:37;;;;;;;30.05;9.35;;;15.10;99.90;;;;;;4454434;32;20095;-65
2024/03/31 08:40:03;;;;;;;26.45;9.30;;;15.10;99.90;;;;;;4453480;32;20525;-65
2024/03/31 08:42:54;;;;;;;30.17;7.45;;;15.00;99.90;;;;;;4456477;32;20057;-61
2024/03/31 08:45:21;;;;;;;26.95;10.43;;;15.10;99.90;;;;;;4449513;32;20513;-61
2024/03/31 08:47:52;;;;;;;7.22;4.55;;;15.30;99.90;;;;;;4456178;32;20096;-62
2024/03/31 08:50:17;;;;;;;77.78;9.23;;;15.40;99.90;;;;;;4454087;32;20060;-61
2024/03/31 08:52:43;;;;;;;28.45;7.50;;;15.60;99.90;;;;;;4447509;32;20092;-64
2024/03/31 08:55:10;;;;;;;42.03;9.90;;;15.80;99.90;;;;;;4459158;32;20065;-62
2024/03/31 08:57:36;;;;;;;62.30;9.88;;;15.90;99.90;;;;;;4454914;32;20088;-62
2024/03/31 09:00:04;;;;;;;33.40;10.95;;;15.80;99.90;;;;;;4457379;32;20079;-63
2024/03/31 09:02:30;;;;;;;9.15;4.68;;;15.80;99.90;;;;;;4456861;32;20060;-61
2024/03/31 09:04:55;;;;;;;15.25;6.37;;;15.90;99.90;;;;;;4458609;32;20512;-62
2024/03/31 09:07:21;;;;;;;27.33;7.78;;;16.00;99.90;;;;;;4457867;32;20101;-61
2024/03/31 09:09:47;;;;;;;7.22;4.45;;;16.10;99.90;;;;;;4458295;32;20547;-64
2024/03/31 09:12:13;;;;;;;51.80;9.30;;;15.90;99.90;;;;;;4457763;32;20096;-61
2024/03/31 09:14:40;;;;;;;25.92;8.32;;;15.80;99.90;;;;;;4456844;32;20438;-61
2024/03/31 09:17:08;;;;;;;7.10;4.15;;;15.80;99.90;;;;;;4447836;32;20139;-62
2024/03/31 09:19:33;;;;;;;19.33;7.20;;;15.80;99.90;;;;;;4447866;32;20123;-62
2024/03/31 09:21:59;;;;;;;36.67;6.35;;;15.70;99.90;;;;;;4448872;32;20425;-60
2024/03/31 09:24:26;;;;;;;12.18;4.80;;;16.00;99.90;;;;;;4456743;32;20192;-65
2024/03/31 09:26:52;;;;;;;26.15;8.20;;;16.30;99.90;;;;;;4454073;32;20080;-67
2024/03/31 09:29:20;;;;;;;9.27;3.87;;;16.50;99.90;;;;;;4449903;32;20130;-65
2024/03/31 09:31:46;;;;;;;39.55;10.70;;;16.60;99.90;;;;;;4457208;32;20068;-68
2024/03/31 09:34:11;;;;;;;30.58;5.60;;;16.60;99.90;;;;;;4457856;32;20088;-68
2024/03/31 09:36:38;;;;;;;48.83;7.18;;;16.50;99.90;;;;;;4447390;32;20168;-67
2024/03/31 09:39:03;;;;;;;12.80;5.80;;;16.60;99.90;;;;;;4455570;32;20078;-68
2024/03/31 09:41:30;;;;;;;57.28;6.72;;;16.70;99.90;;;;;;4454665;32;20588;-66
2024/03/31 09:43:55;;;;;;;43.55;9.93;;;16.60;99.90;;;;;;4456631;32;20069;-67
2024/03/31 09:46:21;;;;;;;8.65;3.95;;;16.70;99.90;;;;;;4455399;32;20100;-65
2024/03/31 09:48:51;;;;;;;42.22;7.40;;;17.00;99.90;;;;;;4457319;32;20076;-66
2024/03/31 09:51:22;;;;;;;15.65;7.03;;;17.20;99.90;;;;;;4447079;32;20123;-65
2024/03/31 09:53:59;;;;;;;21.95;6.93;;;17.40;99.90;;;;;;4449933;32;20081;-63
2024/03/31 09:56:34;;;;;;;30.05;6.68;;;17.50;99.90;;;;;;4457610;32;20560;-62
2024/03/31 09:59:02;;;;;;;16.27;3.30;;;17.50;99.90;;;;;;4457260;32;20061;-62
2024/03/31 10:01:30;;;;;;;36.80;8.82;;;17.70;99.90;;;;;;4457743;32;20484;-63
2024/03/31 10:04:07;;;;;;;20.88;3.30;;;17.80;99.90;;;;;;4457741;32;20139;-63
2024/03/31 10:06:33;;;;;;;20.80;5.72;;;18.00;99.90;;;;;;4451292;32;20084;-63
2024/03/31 10:08:59;;;;;;;17.55;5.70;;;18.10;99.90;;;;;;4458902;32;20069;-63
2024/03/31 10:11:26;;;;;;;14.63;5.50;;;18.10;99.90;;;;;;4456936;32;20077;-63
2024/03/31 10:13:53;;;;;;;25.88;7.45;;;18.20;99.90;;;;;;4458229;32;20080;-63
2024/03/31 10:16:19;;;;;;;28.55;5.90;;;18.30;99.90;;;;;;4449611;32;20060;-63
2024/03/31 10:18:46;;;;;;;10.88;5.93;;;18.40;99.90;;;;;;4456593;32;20073;-63
2024/03/31 10:21:12;;;;;;;11.77;5.72;;;18.40;99.90;;;;;;4457207;32;20556;-63
2024/03/31 10:23:40;;;;;;;15.80;6.40;;;18.40;99.90;;;;;;4457015;32;20524;-63
2024/03/31 10:26:07;;;;;;;19.80;4.45;;;18.30;99.90;;;;;;4456985;32;20072;-63
2024/03/31 10:28:33;;;;;;;26.40;6.07;;;18.40;99.90;;;;;;4448362;32;20527;-63
2024/03/31 10:30:59;;;;;;;39.45;7.05;;;18.60;99.90;;;;;;4456426;32;20085;-64
2024/03/31 10:33:24;;;;;;;9.57;4.62;;;18.80;99.90;;;;;;4454586;32;20128;-62
2024/03/31 10:35:51;;;;;;;32.10;7.78;;;18.80;99.90;;;;;;4448085;32;20076;-62
2024/03/31 10:38:18;;;;;;;12.63;5.90;;;18.90;99.90;;;;;;4456376;32;20140;-62
2024/03/31 10:40:45;;;;;;;6.80;3.33;;;18.90;99.90;;;;;;4454784;32;20094;-63
2024/03/31 10:43:11;;;;;;;5.07;2.40;;;18.90;99.90;;;;;;4456549;32;20540;-64
2024/03/31 10:45:38;;;;;;;13.82;3.85;;;18.80;99.90;;;;;;4446084;32;20057;-62
2024/03/31 10:48:05;;;;;;;13.35;5.72;;;19.00;99.90;;;;;;4455478;32;20517;-62
2024/03/31 10:50:30;;;;;;;14.32;5.90;;;19.10;99.90;;;;;;4447964;32;20131;-61
2024/03/31 10:52:56;;;;;;;10.70;4.18;;;19.30;99.90;;;;;;4453825;32;20093;-63
2024/03/31 10:55:21;;;;;;;20.83;3.30;;;19.40;99.90;;;;;;4449901;32;20064;-63
2024/03/31 10:58:02;;;;;;;11.63;4.30;;;19.50;99.90;;;;;;4456837;32;20065;-61
2024/03/31 11:02:54;;;;;;;10.75;4.10;;;19.50;99.90;;;;;;4454994;32;20504;-65
2024/03/31 11:05:21;;;;;;;7.35;4.32;;;19.50;99.90;;;;;;4449379;32;20068;-65
2024/03/31 11:07:48;;;;;;;9.60;4.72;;;19.60;99.90;;;;;;4440442;32;20097;-66
2024/03/31 11:10:15;;;;;;;14.73;5.30;;;19.50;99.90;;;;;;4446282;32;20524;-65
2024/03/31 11:12:43;;;;;;;8.90;3.67;;;19.90;99.90;;;;;;4447229;32;20109;-65
2024/03/31 11:15:09;;;;;;;29.10;8.35;;;20.30;99.90;;;;;;4448574;32;20716;-64
2024/03/31 11:17:35;;;;;;;11.90;5.37;;;20.30;99.90;;;;;;4434049;32;20084;-66
2024/03/31 11:20:03;;;;;;;17.25;4.68;;;20.40;99.90;;;;;;4450504;32;20123;-65
2024/03/31 11:22:30;;;;;;;27.87;4.87;;;20.60;99.90;;;;;;4455971;32;20371;-66
2024/03/31 11:24:57;;;;;;;5.80;3.65;;;20.40;99.90;;;;;;4447322;32;20351;-65
2024/03/31 11:27:23;;;;;;;57.85;12.13;;;20.50;99.90;;;;;;4447659;32;20085;-65
2024/03/31 11:29:49;;;;;;;22.23;3.87;;;20.50;99.90;;;;;;4456377;32;20533;-66
2024/03/31 11:32:16;;;;;;;13.13;3.70;;;20.40;99.90;;;;;;4454293;32;20069;-65
2024/03/31 11:34:49;;;;;;;5.25;3.30;;;20.70;99.90;;;;;;4454486;32;20127;-67
2024/03/31 11:37:15;;;;;;;7.65;4.15;;;21.00;99.90;;;;;;4450814;32;20089;-66
2024/03/31 11:39:41;;;;;;;21.95;4.25;;;21.20;99.90;;;;;;4446482;32;20120;-65
2024/03/31 11:42:07;;;;;;;24.70;7.50;;;21.30;99.90;;;;;;4455765;32;20068;-65
2024/03/31 11:44:35;;;;;;;14.57;5.22;;;21.20;99.90;;;;;;4450094;32;20068;-63
2024/03/31 11:47:03;;;;;;;10.98;2.97;;;21.40;99.90;;;;;;4449451;32;20566;-63
2024/03/31 11:49:33;;;;;;;5.10;2.53;;;21.50;99.90;;;;;;4449516;32;20065;-64
2024/03/31 11:51:59;;;;;;;10.77;2.80;;;21.80;99.90;;;;;;4454478;32;20068;-63
2024/03/31 11:54:25;;;;;;;17.05;4.12;;;21.50;99.90;;;;;;4438576;32;84354;-63
2024/03/31 11:56:51;;;;;;;5.87;3.55;;;21.90;99.90;;;;;;4453992;32;20413;-63
2024/03/31 11:59:18;;;;;;;10.65;4.62;;;22.20;99.90;;;;;;4443398;32;20069;-63
2024/03/31 12:01:44;;;;;;;15.20;4.87;;;22.20;99.90;;;;;;4457634;32;20081;-63
2024/03/31 12:04:15;;;;;;;7.72;4.53;;;22.40;99.90;;;;;;4440106;32;20119;-63
2024/03/31 12:06:41;;;;;;;;;;;22.30;99.90;;;;;;4455864;32;20064;-63
2024/03/31 12:09:06;;;;;;;10.48;3.83;;;22.40;99.90;;;;;;4441948;32;20005;-63
2024/03/31 12:11:32;;;;;;;4.00;1.60;;;22.60;99.90;;;;;;4457337;32;20068;-63
2024/03/31 12:13:58;;;;;;;4.05;2.62;;;22.60;99.90;;;;;;4455879;32;20106;-62
2024/03/31 12:16:23;;;;;;;8.27;2.10;;;22.50;99.90;;;;;;4441849;32;20202;-62
2024/03/31 12:18:49;;;;;;;5.35;3.10;;;22.20;99.90;;;;;;4457555;32;20088;-59
2024/03/31 12:21:20;;;;;;;2.70;2.08;;;22.30;99.90;;;;;;4457757;32;20120;-60
2024/03/31 12:23:47;;;;;;;10.27;4.12;;;22.40;99.90;;;;;;4457398;32;20167;-60
2024/03/31 12:26:14;;;;;;;11.23;2.75;;;23.00;99.90;;;;;;4428524;32;20065;-63
2024/03/31 12:28:40;;;;;;;16.10;5.40;;;23.30;99.90;;;;;;4431959;32;20096;-62
2024/03/31 12:31:06;;;;;;;10.13;4.25;;;23.30;99.90;;;;;;4441916;32;20069;-61
2024/03/31 12:33:32;;;;;;;6.03;2.33;;;23.00;99.90;;;;;;4441534;32;20065;-60
2024/03/31 12:35:59;;;;;;;17.37;3.60;;;22.30;99.90;;;;;;4457364;32;20092;-63
2024/03/31 12:38:25;;;;;;;13.05;4.35;;;22.20;99.90;;;;;;4456112;32;20076;-61
2024/03/31 12:40:55;;;;;;;10.52;4.18;;;22.10;99.90;;;;;;4455335;32;20065;-62
2024/03/31 12:43:24;;;;;;;2.87;1.97;;;22.10;99.90;;;;;;4429832;32;20064;-59